Time;durP1;ratioP1;P1;durP2;ratioP2;P2;SDS_P1;SDS_P2;PMS_P1;PMS_P2;Temp;Humidity;BMP_temperature;BMP_pressure;BME280_temperature;BME280_humidity;BME280_pressure;Samples;Min_cycle;Max_cycle;Signal;HPM_P1;HPM_P2
2023/10/15 00:00:51;;;;;;;6.82;1.92;;;16.90;1.00;;;;;;6155884;23;20031;-28
2023/10/15 00:03:17;;;;;;;9.43;2.00;;;16.60;1.00;;;;;;6181790;23;20027;-28
2023/10/15 00:05:43;;;;;;;7.68;1.67;;;17.20;1.00;;;;;;6182123;23;20566;-26
2023/10/15 00:08:09;;;;;;;7.13;2.05;;;17.20;1.00;;;;;;6155272;23;20009;-26
2023/10/15 00:10:36;;;;;;;7.13;1.60;;;17.10;1.00;;;;;;6181976;23;20020;-26
2023/10/15 00:13:04;;;;;;;6.30;1.60;;;16.10;1.00;;;;;;6182328;23;20516;-27
2023/10/15 00:15:30;;;;;;;10.05;1.92;;;16.70;1.00;;;;;;6182140;23;20065;-27
2023/10/15 00:18:00;;;;;;;6.55;1.73;;;17.10;1.00;;;;;;6181932;23;20009;-28
2023/10/15 00:20:31;;;;;;;7.35;1.70;;;16.30;1.00;;;;;;6181615;23;20063;-27
2023/10/15 00:22:59;;;;;;;7.75;1.90;;;16.10;1.00;;;;;;6182034;23;20091;-29
2023/10/15 00:25:24;;;;;;;8.25;1.88;;;17.30;1.00;;;;;;6182519;23;20071;-29
2023/10/15 00:27:57;;;;;;;7.68;1.75;;;16.70;1.00;;;;;;6154991;23;20009;-28
2023/10/15 00:30:31;;;;;;;6.13;1.80;;;17.20;1.00;;;;;;6181455;23;20009;-28
2023/10/15 00:32:57;;;;;;;7.97;2.33;;;17.20;1.00;;;;;;6181882;23;20040;-28
2023/10/15 00:35:25;;;;;;;9.45;1.80;;;17.10;1.00;;;;;;6181152;23;20047;-28
2023/10/15 00:37:57;;;;;;;6.57;1.80;;;17.30;1.00;;;;;;6155296;23;20136;-27
2023/10/15 00:40:25;;;;;;;5.40;1.40;;;17.20;1.00;;;;;;6181694;23;20032;-27
2023/10/15 00:42:52;;;;;;;6.15;1.48;;;16.70;1.00;;;;;;6181659;23;20105;-31
2023/10/15 00:45:19;;;;;;;12.50;2.33;;;16.60;1.00;;;;;;6154988;23;20075;-26
2023/10/15 00:48:00;;;;;;;7.65;1.90;;;16.70;1.00;;;;;;6154862;23;20092;-28
2023/10/15 00:50:31;;;;;;;6.78;1.55;;;17.30;1.00;;;;;;6154623;23;20017;-27
2023/10/15 00:53:03;;;;;;;8.52;2.03;;;16.60;1.00;;;;;;6181730;23;20395;-28
2023/10/15 00:55:29;;;;;;;5.82;1.55;;;16.80;1.00;;;;;;6181592;23;20024;-29
2023/10/15 00:57:56;;;;;;;5.63;1.38;;;17.00;1.00;;;;;;6155618;23;20080;-28
2023/10/15 01:00:47;;;;;;;7.05;1.90;;;17.10;1.00;;;;;;6181182;23;20474;-28
2023/10/15 01:03:13;;;;;;;4.88;1.15;;;16.60;1.00;;;;;;6155293;23;20017;-28
2023/10/15 01:05:53;;;;;;;5.63;1.40;;;16.70;1.00;;;;;;6155616;23;20018;-28
2023/10/15 01:08:25;;;;;;;6.22;1.55;;;16.90;1.00;;;;;;6182293;23;20439;-28
2023/10/15 01:11:08;;;;;;;4.57;1.23;;;;;;;;;;6156024;23;20017;-28
2023/10/15 01:13:35;;;;;;;5.57;1.73;;;16.90;1.00;;;;;;6155512;23;20463;-26
2023/10/15 01:16:04;;;;;;;7.30;1.63;;;16.40;1.00;;;;;;6181904;23;20063;-29
2023/10/15 01:18:30;;;;;;;4.60;1.23;;;16.60;1.00;;;;;;6182061;23;20009;-30
2023/10/15 01:21:01;;;;;;;6.25;1.27;;;16.60;1.00;;;;;;6181886;23;20009;-27
2023/10/15 01:26:25;;;;;;;6.72;1.65;;;16.60;1.00;;;;;;6135182;23;20158;-31
2023/10/15 01:28:53;;;;;;;7.22;1.33;;;16.90;1.00;;;;;;6180876;23;20013;-28
2023/10/15 01:31:19;;;;;;;7.05;1.70;;;16.90;1.00;;;;;;6182778;23;20020;-28
2023/10/15 01:33:49;;;;;;;5.22;1.42;;;17.00;1.00;;;;;;6183098;23;20009;-28
2023/10/15 01:36:22;;;;;;;6.03;1.75;;;16.40;1.00;;;;;;6156593;23;20017;-28
2023/10/15 01:38:55;;;;;;;11.90;2.95;;;16.60;1.00;;;;;;6183443;23;20075;-28
2023/10/15 01:41:25;;;;;;;6.28;2.00;;;16.50;1.00;;;;;;6155923;23;20020;-29
2023/10/15 01:43:56;;;;;;;5.63;1.38;;;17.00;1.00;;;;;;6155740;23;20055;-28
2023/10/15 01:49:07;;;;;;;6.50;1.33;;;16.40;1.00;;;;;;6182999;23;20406;-30
2023/10/15 01:51:40;;;;;;;8.07;1.35;;;16.10;1.00;;;;;;6182630;23;20260;-27
2023/10/15 01:54:09;;;;;;;4.80;1.03;;;17.00;1.00;;;;;;6183182;23;20033;-30
2023/10/15 01:56:37;;;;;;;7.07;1.40;;;16.00;1.00;;;;;;6183211;23;20047;-30
2023/10/15 01:59:08;;;;;;;5.70;1.60;;;16.70;1.00;;;;;;6183174;23;20047;-29
2023/10/15 02:01:40;;;;;;;5.25;1.30;;;15.80;1.00;;;;;;6183021;23;20028;-27
2023/10/15 02:04:12;;;;;;;9.15;1.77;;;15.90;1.00;;;;;;6183569;23;20439;-28
2023/10/15 02:06:43;;;;;;;7.22;1.67;;;16.90;1.00;;;;;;6183811;23;20044;-28
2023/10/15 02:09:13;;;;;;;6.47;1.40;;;16.50;1.00;;;;;;6183381;23;20013;-28
2023/10/15 02:11:47;;;;;;;5.45;1.30;;;16.70;1.00;;;;;;6183493;23;20017;-28
2023/10/15 02:14:20;;;;;;;5.60;1.38;;;16.10;1.00;;;;;;6182918;23;20009;-28
2023/10/15 02:16:49;;;;;;;8.07;2.08;;;16.00;1.00;;;;;;6183713;23;20308;-28
2023/10/15 02:19:28;;;;;;;3.75;1.10;;;16.20;1.00;;;;;;6183238;23;20455;-28
2023/10/15 02:21:54;;;;;;;4.18;1.00;;;15.70;1.00;;;;;;6182988;23;20415;-27
2023/10/15 02:24:20;;;;;;;6.28;1.23;;;;;;;;;;6182700;23;20029;-26
2023/10/15 02:26:46;;;;;;;5.90;1.10;;;15.60;1.00;;;;;;6155512;23;20021;-28
2023/10/15 02:34:51;;;;;;;6.43;1.40;;;16.10;1.00;;;;;;6090407;23;20019;-30
2023/10/15 02:37:27;;;;;;;4.32;1.30;;;15.90;1.00;;;;;;6138748;23;20017;-28
2023/10/15 02:39:57;;;;;;;5.45;1.10;;;16.80;1.00;;;;;;6180218;23;20013;-28
2023/10/15 02:42:34;;;;;;;4.10;1.00;;;16.80;1.00;;;;;;6180582;23;20013;-28
2023/10/15 02:45:01;;;;;;;4.50;0.88;;;16.70;1.00;;;;;;6181660;23;20470;-28
2023/10/15 02:47:48;;;;;;;3.63;1.05;;;16.30;1.00;;;;;;6182321;23;20013;-28
2023/10/15 02:50:23;;;;;;;6.63;1.50;;;16.70;1.00;;;;;;6156237;23;20024;-27
2023/10/15 02:52:49;;;;;;;6.90;1.55;;;16.60;1.00;;;;;;6183146;23;20343;-28
2023/10/15 02:55:15;;;;;;;6.28;1.30;;;;;;;;;;6180672;23;20017;-28
2023/10/15 02:57:42;;;;;;;4.18;1.10;;;16.50;1.00;;;;;;6182792;23;20454;-28
2023/10/15 03:00:14;;;;;;;4.38;1.15;;;16.10;1.00;;;;;;6181634;23;20013;-26
2023/10/15 03:02:43;;;;;;;4.90;1.15;;;15.60;1.00;;;;;;6155524;23;20442;-26
2023/10/15 03:05:13;;;;;;;3.42;0.90;;;;;;;;;;6183297;23;20052;-29
2023/10/15 03:07:42;;;;;;;4.45;1.17;;;15.60;1.00;;;;;;6183351;23;20017;-28
2023/10/15 03:10:10;;;;;;;5.35;1.48;;;15.60;1.00;;;;;;6181784;23;20021;-28
2023/10/15 03:12:43;;;;;;;5.60;1.17;;;16.30;1.00;;;;;;6182069;23;20009;-28
2023/10/15 03:15:10;;;;;;;4.53;1.33;;;16.10;1.00;;;;;;6181113;23;20085;-28
2023/10/15 03:17:40;;;;;;;4.18;1.00;;;15.60;1.00;;;;;;6182831;23;20316;-28
2023/10/15 03:22:44;;;;;;;4.90;1.30;;;16.70;1.00;;;;;;6182864;23;20075;-28
2023/10/15 03:25:13;;;;;;;5.00;1.50;;;15.50;1.00;;;;;;6156136;23;20016;-27
2023/10/15 03:27:39;;;;;;;5.10;1.30;;;15.80;1.00;;;;;;6182878;23;20020;-29
2023/10/15 03:30:09;;;;;;;5.60;1.05;;;15.60;1.00;;;;;;6181837;23;20084;-28
2023/10/15 03:32:41;;;;;;;5.78;1.10;;;16.50;1.00;;;;;;6155359;23;20447;-28
2023/10/15 03:35:27;;;;;;;5.43;1.00;;;15.50;1.00;;;;;;6182705;23;20087;-29
2023/10/15 03:38:04;;;;;;;4.13;0.98;;;16.60;1.00;;;;;;6155888;23;20463;-28
2023/10/15 03:40:31;;;;;;;3.17;0.93;;;15.60;1.00;;;;;;6182571;23;20044;-28
2023/10/15 03:43:04;;;;;;;2.42;0.90;;;15.70;1.00;;;;;;6182639;23;20012;-28
2023/10/15 03:45:50;;;;;;;4.95;1.00;;;15.40;1.00;;;;;;6182771;23;20067;-28
2023/10/15 03:48:29;;;;;;;4.22;1.20;;;16.70;1.00;;;;;;6182287;23;20511;-28
2023/10/15 03:50:56;;;;;;;5.22;1.10;;;16.70;1.00;;;;;;6155705;23;20021;-29
2023/10/15 03:53:28;;;;;;;6.90;1.08;;;15.60;1.00;;;;;;6181114;23;20013;-29
2023/10/15 03:55:57;;;;;;;5.43;1.05;;;;;;;;;;6182122;23;20044;-28
2023/10/15 03:58:23;;;;;;;5.38;1.10;;;;;;;;;;6182262;23;20090;-30
2023/10/15 04:00:56;;;;;;;4.55;1.27;;;;;;;;;;6181835;23;20144;-28
2023/10/15 04:03:28;;;;;;;6.55;1.30;;;15.70;1.00;;;;;;6181211;23;20407;-30
2023/10/15 04:06:05;;;;;;;5.97;1.65;;;16.20;1.00;;;;;;6181732;23;20017;-28
2023/10/15 04:08:31;;;;;;;5.15;1.20;;;16.20;1.00;;;;;;6155778;23;20016;-27
2023/10/15 04:10:58;;;;;;;4.63;1.17;;;16.10;1.00;;;;;;6182033;23;20481;-29
2023/10/15 04:13:26;;;;;;;7.95;1.20;;;15.60;1.00;;;;;;6181959;23;20084;-30
2023/10/15 04:15:56;;;;;;;5.70;1.13;;;16.50;1.00;;;;;;6182528;23;20063;-30
2023/10/15 04:18:25;;;;;;;4.20;1.60;;;16.10;1.00;;;;;;6155105;23;20454;-31
2023/10/15 04:20:52;;;;;;;5.00;1.20;;;15.30;1.00;;;;;;6182474;23;20008;-29
2023/10/15 04:23:30;;;;;;;8.10;1.50;;;16.50;1.00;;;;;;6182313;23;20040;-29
2023/10/15 04:26:04;;;;;;;5.95;1.63;;;16.60;1.00;;;;;;6181608;23;20052;-29
2023/10/15 04:28:30;;;;;;;6.68;1.35;;;15.50;1.00;;;;;;6155657;23;20343;-29
2023/10/15 04:30:56;;;;;;;4.18;0.88;;;15.70;1.00;;;;;;6182058;23;20009;-27
2023/10/15 04:33:25;;;;;;;4.75;1.40;;;16.50;1.00;;;;;;6181988;23;20059;-29
2023/10/15 04:35:51;;;;;;;7.43;2.42;;;15.50;1.00;;;;;;6182481;23;20020;-29
2023/10/15 04:38:22;;;;;;;5.15;1.35;;;15.70;1.00;;;;;;6182188;23;20028;-29
2023/10/15 04:43:25;;;;;;;4.15;1.10;;;15.70;1.00;;;;;;6181870;23;20028;-28
2023/10/15 04:45:51;;;;;;;3.30;1.02;;;16.20;1.00;;;;;;6182228;23;20063;-29
2023/10/15 04:48:26;;;;;;;5.22;1.10;;;;;;;;;;6182133;23;20034;-29
2023/10/15 04:50:52;;;;;;;4.38;1.08;;;15.00;1.00;;;;;;6181804;23;20052;-29
2023/10/15 04:55:52;;;;;;;5.53;1.48;;;15.50;1.00;;;;;;6182211;23;20063;-28
2023/10/15 04:58:18;;;;;;;4.85;1.27;;;15.20;1.00;;;;;;6182103;23;20076;-29
2023/10/15 05:00:48;;;;;;;5.15;1.17;;;16.20;1.00;;;;;;6181825;23;20096;-28
2023/10/15 05:03:14;;;;;;;5.85;1.20;;;15.70;1.00;;;;;;6181925;23;20017;-29
2023/10/15 05:05:43;;;;;;;4.38;1.40;;;16.40;1.00;;;;;;6182534;23;20013;-26
2023/10/15 05:08:13;;;;;;;7.47;1.38;;;15.60;1.00;;;;;;6184579;23;20015;-30
2023/10/15 05:10:50;;;;;;;5.18;1.10;;;15.70;1.00;;;;;;6183773;23;20490;-29
2023/10/15 05:13:17;;;;;;;4.80;1.10;;;15.50;1.00;;;;;;6184369;23;20009;-29
2023/10/15 05:15:50;;;;;;;6.53;1.15;;;15.70;1.00;;;;;;6184464;23;20005;-29
2023/10/15 05:18:18;;;;;;;5.75;1.10;;;15.60;1.00;;;;;;6183736;23;20019;-27
2023/10/15 05:20:44;;;;;;;5.95;1.42;;;15.50;1.00;;;;;;6183845;23;20023;-28
2023/10/15 05:23:11;;;;;;;4.47;1.10;;;15.80;1.00;;;;;;6184168;23;20049;-28
2023/10/15 05:25:39;;;;;;;5.47;1.25;;;15.40;1.00;;;;;;6183143;23;20024;-29
2023/10/15 05:28:06;;;;;;;4.75;1.15;;;16.30;1.00;;;;;;6157485;23;20017;-29
2023/10/15 05:30:32;;;;;;;5.90;1.17;;;15.50;1.00;;;;;;6183083;23;20084;-29
2023/10/15 05:33:00;;;;;;;5.75;1.10;;;15.50;1.00;;;;;;6183466;23;20043;-28
2023/10/15 05:35:27;;;;;;;5.68;1.20;;;16.10;1.00;;;;;;6157538;23;20009;-28
2023/10/15 05:37:54;;;;;;;4.32;1.35;;;16.00;1.00;;;;;;6183393;23;20013;-26
2023/10/15 05:40:21;;;;;;;4.65;1.08;;;16.00;1.00;;;;;;6183395;23;20013;-29
2023/10/15 05:42:47;;;;;;;5.63;1.30;;;15.50;1.00;;;;;;6183592;23;20012;-27
2023/10/15 05:45:14;;;;;;;4.22;1.13;;;15.40;1.00;;;;;;6183502;23;20013;-28
2023/10/15 05:47:42;;;;;;;8.80;1.20;;;15.70;1.00;;;;;;6183489;23;20116;-29
2023/10/15 05:50:09;;;;;;;5.10;1.27;;;15.20;1.00;;;;;;6182800;23;20036;-28
2023/10/15 05:52:34;;;;;;;8.57;1.30;;;15.50;1.00;;;;;;6183898;23;20035;-30
2023/10/15 05:55:01;;;;;;;4.47;1.20;;;15.40;1.00;;;;;;6183540;23;20463;-28
2023/10/15 05:57:28;;;;;;;7.05;1.20;;;15.50;1.00;;;;;;6183496;23;20012;-28
2023/10/15 05:59:57;;;;;;;4.65;1.40;;;15.10;1.00;;;;;;6183761;23;20024;-28
2023/10/15 06:02:23;;;;;;;6.18;1.30;;;15.80;1.00;;;;;;6184151;23;20088;-30
2023/10/15 06:04:49;;;;;;;4.10;0.93;;;15.40;1.00;;;;;;6183825;23;20112;-30
2023/10/15 06:07:15;;;;;;;7.07;1.00;;;15.50;1.00;;;;;;6155276;23;20021;-29
2023/10/15 06:09:44;;;;;;;5.25;1.02;;;15.60;1.00;;;;;;6179247;23;20343;-27
2023/10/15 06:12:10;;;;;;;5.32;1.02;;;16.20;1.00;;;;;;6181259;23;20009;-28
2023/10/15 06:14:36;;;;;;;6.63;1.17;;;15.60;1.00;;;;;;6182355;23;20008;-28
2023/10/15 06:17:02;;;;;;;3.97;1.05;;;15.50;1.00;;;;;;6182571;23;20060;-28
2023/10/15 06:19:31;;;;;;;5.75;1.40;;;15.50;1.00;;;;;;6182829;23;20013;-28
2023/10/15 06:21:56;;;;;;;2.88;0.80;;;15.60;1.00;;;;;;6182054;23;20009;-30
2023/10/15 06:24:23;;;;;;;3.53;1.05;;;15.10;1.00;;;;;;6182105;23;20342;-29
2023/10/15 06:26:50;;;;;;;6.07;1.35;;;16.20;1.00;;;;;;6182586;23;20025;-27
2023/10/15 06:29:15;;;;;;;6.53;2.67;;;15.80;1.00;;;;;;6156708;23;20009;-26
2023/10/15 06:31:41;;;;;;;9.10;1.58;;;15.30;1.00;;;;;;6130790;23;20079;-28
2023/10/15 06:34:07;;;;;;;5.50;1.30;;;15.50;1.00;;;;;;6183045;23;20565;-28
2023/10/15 06:36:33;;;;;;;9.30;2.00;;;16.30;1.00;;;;;;6154324;23;20056;-28
2023/10/15 06:39:00;;;;;;;15.30;4.85;;;15.50;1.00;;;;;;6182969;23;20068;-28
2023/10/15 06:41:26;;;;;;;17.30;4.38;;;15.70;1.00;;;;;;6182147;23;20028;-29
2023/10/15 06:43:53;;;;;;;16.27;3.80;;;;;;;;;;6182804;23;20009;-27
2023/10/15 06:46:19;;;;;;;15.68;4.57;;;15.60;1.00;;;;;;6155431;23;20021;-27
2023/10/15 06:48:44;;;;;;;21.42;4.10;;;15.10;1.00;;;;;;6152160;23;20017;-26
2023/10/15 06:51:10;;;;;;;12.65;3.60;;;15.50;1.00;;;;;;6155087;23;20017;-28
2023/10/15 06:53:37;;;;;;;11.75;3.67;;;;;;;;;;6178597;23;20013;-27
2023/10/15 06:56:06;;;;;;;15.25;3.05;;;15.60;1.00;;;;;;6176947;23;20061;-29
2023/10/15 06:58:35;;;;;;;11.85;3.47;;;15.40;1.00;;;;;;6153309;23;20055;-29
2023/10/15 07:01:02;;;;;;;12.43;3.33;;;15.20;1.00;;;;;;6180837;23;20013;-26
2023/10/15 07:03:28;;;;;;;9.10;2.92;;;15.80;1.00;;;;;;6182661;23;20095;-27
2023/10/15 07:05:53;;;;;;;9.85;2.70;;;15.50;1.00;;;;;;6183312;23;20402;-28
2023/10/15 07:08:19;;;;;;;8.65;1.73;;;15.80;1.00;;;;;;6182845;23;20024;-28
2023/10/15 07:10:45;;;;;;;8.85;2.38;;;15.50;1.00;;;;;;6182709;23;20408;-26
2023/10/15 07:13:11;;;;;;;9.88;2.55;;;15.80;1.00;;;;;;6156544;23;20017;-28
2023/10/15 07:15:38;;;;;;;7.65;2.15;;;15.50;1.00;;;;;;6182158;23;20075;-28
2023/10/15 07:18:04;;;;;;;11.00;1.92;;;;;;;;;;6156119;23;20013;-28
2023/10/15 07:20:31;;;;;;;7.18;1.83;;;15.40;1.00;;;;;;6182436;23;20013;-27
2023/10/15 07:22:59;;;;;;;11.52;2.30;;;15.50;1.00;;;;;;6182718;23;20024;-27
2023/10/15 07:25:29;;;;;;;9.38;2.33;;;16.30;1.00;;;;;;6182929;23;20017;-28
2023/10/15 07:27:58;;;;;;;6.82;2.00;;;15.00;1.00;;;;;;6182975;23;20071;-28
2023/10/15 07:30:25;;;;;;;7.32;1.95;;;15.00;1.00;;;;;;6182591;23;20088;-28
2023/10/15 07:32:53;;;;;;;11.60;2.42;;;16.00;1.00;;;;;;6182144;23;20063;-27
2023/10/15 07:35:21;;;;;;;10.20;2.28;;;15.10;1.00;;;;;;6181818;23;20013;-28
2023/10/15 07:37:49;;;;;;;14.73;3.03;;;;;;;;;;6128726;23;20017;-27
2023/10/15 07:40:19;;;;;;;13.88;2.92;;;15.90;1.00;;;;;;6180759;23;20025;-27
2023/10/15 07:42:50;;;;;;;12.65;3.63;;;15.20;1.00;;;;;;6153546;23;20017;-26
2023/10/15 07:45:18;;;;;;;16.50;4.00;;;16.10;1.00;;;;;;6181656;23;20013;-27
2023/10/15 07:47:45;;;;;;;16.48;2.72;;;15.60;1.00;;;;;;6182760;23;20427;-27
2023/10/15 07:50:18;;;;;;;11.95;2.70;;;15.50;1.00;;;;;;6182480;23;20451;-28
2023/10/15 07:52:45;;;;;;;9.60;2.53;;;15.30;1.00;;;;;;6155383;23;20024;-25
2023/10/15 07:55:12;;;;;;;13.98;3.50;;;15.10;1.00;;;;;;6156368;23;20016;-28
2023/10/15 07:57:37;;;;;;;14.55;3.60;;;15.60;1.00;;;;;;6181333;23;20312;-26
2023/10/15 08:00:08;;;;;;;10.25;2.30;;;16.10;1.00;;;;;;6181737;23;20075;-29
2023/10/15 08:02:39;;;;;;;12.13;2.28;;;15.50;1.00;;;;;;6181000;23;20017;-27
2023/10/15 08:05:05;;;;;;;13.90;2.65;;;15.70;1.00;;;;;;6181739;23;20343;-28
2023/10/15 08:07:30;;;;;;;11.63;2.38;;;15.10;1.00;;;;;;6156219;23;20017;-28
2023/10/15 08:09:57;;;;;;;11.88;2.33;;;15.50;1.00;;;;;;6154950;23;20324;-28
2023/10/15 08:12:23;;;;;;;10.00;2.63;;;;;;;;;;6181964;23;20059;-29
2023/10/15 08:14:49;;;;;;;12.85;2.90;;;15.60;1.00;;;;;;6130440;23;20386;-28
2023/10/15 08:17:15;;;;;;;9.10;2.15;;;15.50;1.00;;;;;;6130703;23;20020;-28
2023/10/15 08:19:41;;;;;;;7.47;2.25;;;15.40;1.00;;;;;;6181086;23;20009;-28
2023/10/15 08:22:07;;;;;;;6.63;1.77;;;15.40;1.00;;;;;;6181829;23;20017;-28
2023/10/15 08:24:32;;;;;;;6.55;1.77;;;15.90;1.00;;;;;;6182291;23;20020;-27
2023/10/15 08:26:58;;;;;;;9.80;3.08;;;15.50;1.00;;;;;;6180779;23;20013;-26
2023/10/15 08:29:24;;;;;;;15.02;5.00;;;16.00;1.00;;;;;;6181348;23;20013;-30
2023/10/15 08:31:50;;;;;;;10.18;3.08;;;15.50;1.00;;;;;;6181336;23;20020;-25
2023/10/15 08:34:17;;;;;;;6.90;1.90;;;15.40;1.00;;;;;;6181278;23;20346;-28
2023/10/15 08:36:43;;;;;;;7.13;2.58;;;16.10;1.00;;;;;;6181760;23;20009;-28
2023/10/15 08:39:08;;;;;;;8.48;2.40;;;15.40;1.00;;;;;;6181045;23;20013;-26
2023/10/15 08:41:38;;;;;;;7.88;2.20;;;15.50;1.00;;;;;;6185025;23;20017;-28
2023/10/15 08:44:07;;;;;;;6.63;2.03;;;15.20;1.00;;;;;;6184130;23;20053;-28
2023/10/15 08:46:39;;;;;;;5.85;1.42;;;15.60;1.00;;;;;;6184517;23;20029;-28
2023/10/15 08:49:08;;;;;;;7.20;1.70;;;15.30;1.00;;;;;;6184492;23;20543;-27
2023/10/15 08:51:37;;;;;;;7.50;1.83;;;16.20;1.00;;;;;;6158582;23;20075;-28
2023/10/15 08:54:04;;;;;;;7.45;2.15;;;15.70;1.00;;;;;;6157079;23;20459;-28
2023/10/15 08:56:33;;;;;;;5.88;1.55;;;15.90;1.00;;;;;;6185445;23;20017;-26
2023/10/15 08:59:00;;;;;;;7.28;1.80;;;15.60;1.00;;;;;;6182259;23;20020;-28
2023/10/15 09:01:26;;;;;;;6.00;1.80;;;;;;;;;;6184430;23;20029;-28
2023/10/15 09:03:52;;;;;;;5.75;1.73;;;15.60;1.00;;;;;;6185545;23;20088;-27
2023/10/15 09:06:19;;;;;;;7.28;1.52;;;15.60;1.00;;;;;;6185794;23;20024;-28
2023/10/15 09:08:45;;;;;;;6.22;1.73;;;15.00;1.00;;;;;;6185185;23;20013;-29
2023/10/15 09:11:11;;;;;;;5.55;1.40;;;15.40;1.00;;;;;;6158614;23;20092;-28
2023/10/15 09:13:38;;;;;;;5.68;1.65;;;14.90;1.00;;;;;;6185198;23;20059;-26
2023/10/15 09:16:05;;;;;;;6.85;1.88;;;;;;;;;;6185292;23;20459;-27
2023/10/15 09:18:35;;;;;;;4.70;1.65;;;15.70;1.00;;;;;;6156652;23;20013;-27
2023/10/15 09:21:03;;;;;;;6.85;1.92;;;15.50;1.00;;;;;;6157797;23;20021;-29
2023/10/15 09:23:37;;;;;;;6.35;1.90;;;;;;;;;;6157724;23;20300;-26
2023/10/15 09:26:07;;;;;;;5.80;1.98;;;15.50;1.00;;;;;;6183530;23;20040;-29
2023/10/15 09:28:33;;;;;;;6.53;1.48;;;15.40;1.00;;;;;;6185084;23;20020;-28
2023/10/15 09:31:03;;;;;;;5.55;1.52;;;15.00;1.00;;;;;;6183445;23;20107;-29
2023/10/15 09:33:30;;;;;;;6.05;1.15;;;15.40;1.00;;;;;;6184997;23;20423;-28
2023/10/15 09:35:57;;;;;;;6.72;1.48;;;15.00;1.00;;;;;;6185313;23;20013;-27
2023/10/15 09:38:23;;;;;;;7.20;1.70;;;15.30;1.00;;;;;;6183830;23;20013;-27
2023/10/15 09:40:49;;;;;;;10.25;2.28;;;15.50;1.00;;;;;;6183803;23;20106;-28
2023/10/15 09:43:15;;;;;;;7.03;2.10;;;;;;;;;;6131913;23;20013;-28
2023/10/15 09:45:44;;;;;;;5.97;2.10;;;;;;;;;;6184506;23;20390;-28
2023/10/15 09:48:10;;;;;;;7.53;2.90;;;15.40;1.00;;;;;;6158554;23;20013;-28
2023/10/15 09:50:38;;;;;;;7.32;2.25;;;15.30;1.00;;;;;;6158299;23;20101;-28
2023/10/15 09:53:12;;;;;;;5.03;1.85;;;15.20;1.00;;;;;;6183449;23;20063;-25
2023/10/15 09:55:40;;;;;;;6.80;2.20;;;;;;;;;;6157059;23;20016;-27
2023/10/15 09:58:08;;;;;;;7.30;2.20;;;;;;;;;;6183409;23;20088;-26
2023/10/15 10:01:18;;;;;;;8.02;2.25;;;14.80;1.00;;;;;;6180146;23;20021;-27
2023/10/15 10:03:57;;;;;;;7.07;1.55;;;15.00;1.00;;;;;;6156797;23;20025;-27
2023/10/15 10:06:39;;;;;;;7.15;2.22;;;15.10;1.00;;;;;;6183837;23;20017;-27
2023/10/15 10:09:39;;;;;;;5.18;1.90;;;15.70;1.00;;;;;;6183404;23;20013;-27
2023/10/15 10:12:07;;;;;;;6.43;2.03;;;;;;;;;;6182911;23;20020;-28
2023/10/15 10:14:48;;;;;;;5.72;2.10;;;14.90;1.00;;;;;;6183544;23;20009;-27
2023/10/15 10:17:16;;;;;;;5.95;1.55;;;15.00;1.00;;;;;;6183742;23;20024;-27
2023/10/15 10:19:42;;;;;;;6.82;2.03;;;15.00;1.00;;;;;;6183142;23;20124;-29
2023/10/15 10:22:24;;;;;;;6.78;1.90;;;15.70;1.00;;;;;;6156701;23;20052;-28
2023/10/15 10:24:50;;;;;;;6.97;1.70;;;15.10;1.00;;;;;;6183079;23;20009;-28
2023/10/15 10:27:17;;;;;;;6.15;1.90;;;15.40;1.00;;;;;;6156889;23;20015;-29
2023/10/15 10:29:49;;;;;;;7.00;1.88;;;14.90;1.00;;;;;;6156280;23;20044;-29
2023/10/15 10:32:17;;;;;;;7.15;1.90;;;15.40;1.00;;;;;;6179848;23;20009;-29
2023/10/15 10:34:45;;;;;;;6.68;1.80;;;14.90;1.00;;;;;;6182543;23;20013;-29
2023/10/15 10:37:23;;;;;;;7.75;1.85;;;;;;;;;;6183044;23;20008;-28
2023/10/15 10:39:49;;;;;;;6.65;1.70;;;15.50;1.00;;;;;;6155198;23;20019;-28
2023/10/15 10:42:41;;;;;;;6.80;1.30;;;;;;;;;;6182613;23;20036;-28
2023/10/15 10:45:12;;;;;;;5.22;1.50;;;15.30;1.00;;;;;;6178517;23;20017;-27
2023/10/15 10:47:38;;;;;;;4.72;1.33;;;14.80;1.00;;;;;;6182291;23;20009;-28
2023/10/15 10:50:04;;;;;;;6.70;1.90;;;15.30;1.00;;;;;;6155800;23;20328;-28
2023/10/15 10:52:35;;;;;;;5.45;1.52;;;14.90;1.00;;;;;;6182449;23;20088;-28
2023/10/15 10:55:24;;;;;;;5.38;1.55;;;;;;;;;;6183099;23;20047;-28
2023/10/15 10:57:50;;;;;;;4.90;1.23;;;16.00;1.00;;;;;;6169300;23;20382;-28
2023/10/15 11:00:16;;;;;;;4.68;1.60;;;15.30;1.00;;;;;;6181697;23;20087;-29
2023/10/15 11:02:43;;;;;;;4.55;1.55;;;15.40;1.00;;;;;;6182175;23;20017;-28
2023/10/15 11:05:11;;;;;;;9.73;2.33;;;;;;;;;;6182488;23;20384;-28
2023/10/15 11:07:37;;;;;;;7.05;1.83;;;15.40;1.00;;;;;;6182631;23;20119;-28
2023/10/15 11:10:06;;;;;;;4.18;1.40;;;16.10;1.00;;;;;;6182366;23;20439;-29
2023/10/15 11:12:32;;;;;;;5.93;1.80;;;15.40;1.00;;;;;;6182241;23;20020;-28
2023/10/15 11:14:58;;;;;;;8.35;2.10;;;15.10;1.00;;;;;;6182086;23;20088;-28
2023/10/15 11:17:23;;;;;;;5.47;1.27;;;14.80;1.00;;;;;;6182216;23;20441;-30
2023/10/15 11:19:50;;;;;;;4.68;1.38;;;15.30;1.00;;;;;;6181807;23;20862;-28
2023/10/15 11:22:15;;;;;;;5.57;1.40;;;15.00;1.00;;;;;;6182397;23;20013;-28
2023/10/15 11:24:43;;;;;;;8.07;2.38;;;15.40;1.00;;;;;;6182158;23;20020;-28
2023/10/15 11:27:11;;;;;;;6.30;1.70;;;15.30;1.00;;;;;;6182412;23;20347;-29
2023/10/15 11:29:37;;;;;;;6.32;1.40;;;16.00;1.00;;;;;;6182080;23;20009;-28
2023/10/15 11:32:06;;;;;;;6.93;1.40;;;15.30;1.00;;;;;;6181942;23;20016;-30
2023/10/15 11:34:33;;;;;;;5.07;1.50;;;15.20;1.00;;;;;;6179415;23;20017;-28
2023/10/15 11:37:01;;;;;;;6.13;1.70;;;15.30;1.00;;;;;;6181759;23;20048;-28
2023/10/15 11:39:37;;;;;;;6.03;1.88;;;15.90;1.00;;;;;;6180712;23;20020;-28
2023/10/15 11:42:04;;;;;;;5.93;1.30;;;15.30;1.00;;;;;;6182160;23;20067;-28
2023/10/15 11:44:33;;;;;;;6.57;1.88;;;15.00;1.00;;;;;;6182881;23;20031;-28
2023/10/15 11:47:08;;;;;;;8.07;1.77;;;15.30;1.00;;;;;;6182422;23;20076;-28
2023/10/15 11:49:38;;;;;;;5.03;1.25;;;15.90;1.00;;;;;;6180960;23;20362;-28
2023/10/15 11:52:11;;;;;;;5.18;1.20;;;15.40;1.00;;;;;;6182104;23;20016;-28
2023/10/15 11:54:43;;;;;;;4.60;1.30;;;14.80;1.00;;;;;;6180905;23;20080;-28
2023/10/15 11:57:16;;;;;;;4.22;1.30;;;15.00;1.00;;;;;;6180332;23;20307;-28
2023/10/15 11:59:42;;;;;;;5.53;1.30;;;15.10;1.00;;;;;;6182019;23;20414;-28
2023/10/15 12:02:11;;;;;;;5.25;1.23;;;15.10;1.00;;;;;;6182193;23;20380;-29
2023/10/15 12:04:38;;;;;;;6.07;1.50;;;15.00;1.00;;;;;;6182496;23;20013;-27
2023/10/15 12:07:05;;;;;;;5.47;1.63;;;15.00;1.00;;;;;;6180233;23;20326;-28
2023/10/15 12:09:32;;;;;;;4.68;1.20;;;15.80;1.00;;;;;;6154396;23;20495;-28
2023/10/15 12:11:59;;;;;;;4.55;0.95;;;15.40;1.00;;;;;;6181325;23;20028;-28
2023/10/15 12:14:25;;;;;;;5.68;1.25;;;15.10;1.00;;;;;;6179739;23;20017;-28
2023/10/15 12:16:50;;;;;;;8.93;2.17;;;14.70;1.00;;;;;;6181506;23;20011;-28
2023/10/15 12:19:17;;;;;;;7.43;1.92;;;15.20;1.00;;;;;;6182207;23;20024;-28
2023/10/15 12:21:43;;;;;;;8.00;2.17;;;14.80;1.00;;;;;;6181662;23;20067;-28
2023/10/15 12:24:11;;;;;;;7.95;2.13;;;;;;;;;;6180668;23;20033;-28
2023/10/15 12:26:36;;;;;;;7.30;1.77;;;15.20;1.00;;;;;;6181822;23;20052;-28
2023/10/15 12:29:03;;;;;;;7.65;2.00;;;15.20;1.00;;;;;;6181253;23;20044;-28
2023/10/15 12:31:30;;;;;;;11.43;2.30;;;15.40;1.00;;;;;;6179921;23;20013;-27
2023/10/15 12:33:57;;;;;;;8.38;2.53;;;15.10;1.00;;;;;;6179036;23;20014;-28
2023/10/15 12:36:22;;;;;;;7.95;2.47;;;15.20;1.00;;;;;;6154566;23;20323;-28
2023/10/15 12:38:48;;;;;;;7.70;2.20;;;15.00;1.00;;;;;;6181364;23;20016;-28
2023/10/15 12:41:14;;;;;;;6.13;1.95;;;15.20;1.00;;;;;;6152645;23;20628;-27
2023/10/15 12:43:40;;;;;;;10.93;2.25;;;15.20;1.00;;;;;;6181288;23;20053;-29
2023/10/15 12:46:07;;;;;;;9.40;2.35;;;;;;;;;;6155446;23;20025;-28
2023/10/15 12:48:33;;;;;;;7.50;2.05;;;14.70;1.00;;;;;;6181547;23;20020;-28
2023/10/15 12:50:58;;;;;;;7.45;1.65;;;15.10;1.00;;;;;;6179619;23;20084;-28
2023/10/15 12:53:25;;;;;;;5.22;1.70;;;14.90;1.00;;;;;;6181589;23;20017;-28
2023/10/15 12:55:52;;;;;;;6.38;1.60;;;15.10;1.00;;;;;;6182509;23;20013;-27
2023/10/15 12:58:17;;;;;;;8.25;1.75;;;14.90;1.00;;;;;;6182024;23;20017;-28
2023/10/15 13:00:48;;;;;;;7.28;2.17;;;15.00;1.00;;;;;;6155278;23;20052;-29
2023/10/15 13:03:15;;;;;;;5.10;1.30;;;15.30;1.00;;;;;;6155393;23;20028;-28
2023/10/15 13:05:41;;;;;;;8.38;1.67;;;15.10;1.00;;;;;;6181774;23;20471;-28
2023/10/15 13:08:07;;;;;;;8.30;1.55;;;15.10;1.00;;;;;;6181161;23;20017;-28
2023/10/15 13:10:33;;;;;;;7.30;1.85;;;15.20;1.00;;;;;;6181902;23;20350;-27
2023/10/15 13:12:59;;;;;;;6.20;1.40;;;15.10;1.00;;;;;;6182499;23;20104;-28
2023/10/15 13:15:25;;;;;;;7.28;1.85;;;15.30;1.00;;;;;;6181873;23;20439;-28
2023/10/15 13:17:54;;;;;;;5.75;1.52;;;15.10;1.00;;;;;;6182205;23;20013;-29
2023/10/15 13:20:23;;;;;;;6.22;1.88;;;14.90;1.00;;;;;;6181590;23;20403;-27
2023/10/15 13:22:49;;;;;;;6.47;1.70;;;15.00;1.00;;;;;;6181906;23;20017;-28
2023/10/15 13:25:15;;;;;;;6.38;1.60;;;15.30;1.00;;;;;;6181890;23;20013;-28
2023/10/15 13:27:42;;;;;;;7.63;1.98;;;14.90;1.00;;;;;;6183337;23;20102;-28
2023/10/15 13:30:12;;;;;;;5.28;1.30;;;;;;;;;;6183598;23;20032;-28
2023/10/15 13:32:48;;;;;;;6.60;1.35;;;14.90;1.00;;;;;;6183541;23;20086;-28